Time;durP1;ratioP1;P1;durP2;ratioP2;P2;SDS_P1;SDS_P2;PMS_P1;PMS_P2;Temp;Humidity;BMP_temperature;BMP_pressure;BME280_temperature;BME280_humidity;BME280_pressure;Samples;Min_cycle;Max_cycle;Signal;HPM_P1;HPM_P2
2023/08/26 00:01:58;;;;;;;49.88;27.33;;;;;;;;;;5093158;28;20032;-70
2023/08/26 00:04:23;;;;;;;49.10;27.02;;;;;;;;;;5093884;28;20024;-70
2023/08/26 00:06:49;;;;;;;43.40;26.55;;;;;;;;;;5093018;28;20040;-69
2023/08/26 00:09:15;;;;;;;39.33;24.17;;;;;;;;;;5093323;28;20404;-70
2023/08/26 00:11:43;;;;;;;44.28;25.15;;;;;;;;;;5091791;28;20032;-69
2023/08/26 00:14:08;;;;;;;45.40;24.65;;;;;;;;;;5091356;28;20032;-70
2023/08/26 00:16:34;;;;;;;43.85;25.45;;;;;;;;;;5094033;28;20075;-70
2023/08/26 00:18:59;;;;;;;46.05;25.13;;;;;;;;;;5093092;28;20032;-69
2023/08/26 00:21:28;;;;;;;46.47;24.40;;;;;;;;;;5090925;28;20460;-71
2023/08/26 00:23:54;;;;;;;41.10;24.25;;;;;;;;;;5093480;28;20036;-68
2023/08/26 00:26:20;;;;;;;36.13;22.92;;;;;;;;;;5091475;28;20045;-70
2023/08/26 00:28:46;;;;;;;35.90;21.23;;;;;;;;;;5091769;28;20044;-72
2023/08/26 00:31:11;;;;;;;34.42;22.38;;;;;;;;;;5092159;28;20055;-74
2023/08/26 00:33:37;;;;;;;34.28;21.33;;;;;;;;;;5093569;28;20079;-72
2023/08/26 00:36:02;;;;;;;32.85;20.95;;;;;;;;;;5090586;28;20040;-73
2023/08/26 00:38:28;;;;;;;34.15;21.40;;;;;;;;;;5093581;28;20032;-73
2023/08/26 00:40:54;;;;;;;36.75;21.77;;;;;;;;;;5092217;28;20059;-71
2023/08/26 00:43:19;;;;;;;36.15;22.02;;;;;;;;;;5093896;28;20032;-73
2023/08/26 00:45:48;;;;;;;34.28;21.73;;;;;;;;;;5092696;28;20036;-73
2023/08/26 00:48:15;;;;;;;35.83;21.70;;;;;;;;;;5093193;28;20032;-74
2023/08/26 00:50:47;;;;;;;37.97;21.85;;;;;;;;;;5092114;28;20047;-74
2023/08/26 00:53:14;;;;;;;35.78;21.42;;;;;;;;;;5091093;28;20425;-75
2023/08/26 00:55:40;;;;;;;40.55;22.67;;;;;;;;;;5072112;28;20102;-75
2023/08/26 00:58:06;;;;;;;38.22;22.30;;;;;;;;;;5081276;28;20119;-75
2023/08/26 01:00:36;;;;;;;39.42;22.40;;;;;;;;;;5085178;28;20449;-75
2023/08/26 01:03:03;;;;;;;41.40;23.52;;;;;;;;;;5089807;28;20028;-75
2023/08/26 01:05:29;;;;;;;39.65;22.55;;;;;;;;;;5091596;28;20119;-76
2023/08/26 01:07:55;;;;;;;38.28;23.42;;;;;;;;;;5091775;28;20434;-76
2023/08/26 01:10:31;;;;;;;39.75;23.08;;;;;;;;;;5093286;28;20036;-76
2023/08/26 01:13:01;;;;;;;41.47;22.83;;;;;;;;;;5091346;28;20156;-72
2023/08/26 01:15:29;;;;;;;38.85;23.75;;;;;;;;;;5091725;28;20032;-76
2023/08/26 01:17:55;;;;;;;40.95;23.00;;;;;;;;;;5091856;28;20125;-76
2023/08/26 01:20:23;;;;;;;38.90;22.60;;;;;;;;;;5089650;28;20043;-77
2023/08/26 01:22:51;;;;;;;38.28;23.17;;;;;;;;;;5102203;28;20032;-76
2023/08/26 01:25:17;;;;;;;38.05;22.83;;;;;;;;;;5091498;28;20031;-77
2023/08/26 01:27:43;;;;;;;37.95;22.50;;;;;;;;;;5088787;28;20036;-76
2023/08/26 01:30:12;;;;;;;40.42;23.35;;;;;;;;;;5091023;28;20487;-76
2023/08/26 01:32:41;;;;;;;39.55;23.63;;;;;;;;;;5092238;28;20089;-73
2023/08/26 01:35:11;;;;;;;42.95;23.80;;;;;;;;;;5075013;28;20044;-76
2023/08/26 01:37:40;;;;;;;43.92;23.77;;;;;;;;;;5090965;28;20028;-76
2023/08/26 01:40:08;;;;;;;42.83;23.85;;;;;;;;;;5092761;28;20035;-73
2023/08/26 01:42:36;;;;;;;42.10;23.52;;;;;;;;;;5090346;28;20024;-74
2023/08/26 01:45:03;;;;;;;46.03;25.50;;;;;;;;;;5091488;28;20028;-71
2023/08/26 01:47:28;;;;;;;45.50;25.67;;;;;;;;;;5091312;28;20024;-75
2023/08/26 01:49:54;;;;;;;53.63;26.90;;;;;;;;;;5092230;28;20030;-73
2023/08/26 01:52:19;;;;;;;53.30;27.60;;;;;;;;;;5090907;28;20147;-74
2023/08/26 01:54:49;;;;;;;56.20;29.98;;;;;;;;;;5090866;28;20081;-72
2023/08/26 01:57:17;;;;;;;56.10;30.17;;;;;;;;;;5088327;28;20584;-72
2023/08/26 01:59:43;;;;;;;56.33;29.88;;;;;;;;;;5091145;28;20043;-73
2023/08/26 02:02:09;;;;;;;55.05;30.48;;;;;;;;;;5089550;28;20032;-72
2023/08/26 02:04:36;;;;;;;58.42;31.27;;;;;;;;;;5089276;28;20483;-74
2023/08/26 02:07:02;;;;;;;63.47;31.92;;;;;;;;;;5090766;28;20036;-73
2023/08/26 02:09:27;;;;;;;59.35;32.13;;;;;;;;;;5091912;28;20472;-72
2023/08/26 02:11:52;;;;;;;62.33;31.52;;;;;;;;;;5090751;28;20035;-73
2023/08/26 02:14:18;;;;;;;60.85;32.88;;;;;;;;;;5091254;28;20066;-73
2023/08/26 02:16:43;;;;;;;67.70;32.97;;;;;;;;;;5090614;28;20066;-75
2023/08/26 02:19:09;;;;;;;64.82;33.13;;;;;;;;;;5090670;28;20058;-73
2023/08/26 02:21:34;;;;;;;62.25;32.63;;;;;;;;;;5089014;28;20032;-74
2023/08/26 02:24:01;;;;;;;68.35;33.80;;;;;;;;;;5084192;28;20029;-72
2023/08/26 02:26:26;;;;;;;61.65;32.88;;;;;;;;;;5086882;28;20030;-74
2023/08/26 02:28:52;;;;;;;57.83;31.13;;;;;;;;;;5087882;28;20040;-74
2023/08/26 02:31:17;;;;;;;57.42;30.77;;;;;;;;;;5090013;28;20024;-74
2023/08/26 02:33:43;;;;;;;55.17;28.73;;;;;;;;;;5091144;28;20027;-75
2023/08/26 02:36:10;;;;;;;43.42;23.73;;;;;;;;;;5087899;28;20118;-75
2023/08/26 02:38:36;;;;;;;37.78;22.42;;;;;;;;;;5090346;28;20032;-76
2023/08/26 02:41:02;;;;;;;36.38;21.38;;;;;;;;;;5090726;28;20456;-70
2023/08/26 02:43:27;;;;;;;21.67;14.10;;;;;;;;;;5091456;28;20086;-73
2023/08/26 02:45:54;;;;;;;22.00;12.05;;;;;;;;;;5090427;28;20399;-71
2023/08/26 02:48:21;;;;;;;14.32;7.03;;;;;;;;;;5089356;28;20527;-73
2023/08/26 02:50:46;;;;;;;15.38;8.75;;;;;;;;;;5089646;28;20034;-72
2023/08/26 02:53:12;;;;;;;13.65;7.35;;;;;;;;;;5087698;28;20032;-74
2023/08/26 02:55:37;;;;;;;12.10;5.13;;;;;;;;;;5090663;28;20035;-75
2023/08/26 02:58:03;;;;;;;11.00;5.50;;;;;;;;;;5090281;28;20035;-72
2023/08/26 03:00:29;;;;;;;10.25;5.90;;;;;;;;;;5090399;28;20039;-75
2023/08/26 03:02:54;;;;;;;9.73;4.85;;;;;;;;;;5088804;28;20434;-76
2023/08/26 03:05:19;;;;;;;11.43;5.45;;;;;;;;;;5079251;28;20063;-78
2023/08/26 03:07:45;;;;;;;10.57;5.95;;;;;;;;;;5089400;28;20046;-78
2023/08/26 03:10:10;;;;;;;11.65;5.00;;;;;;;;;;5088998;28;20036;-78
2023/08/26 03:12:36;;;;;;;14.02;4.97;;;;;;;;;;5089093;28;20554;-77
2023/08/26 03:15:01;;;;;;;7.88;4.00;;;;;;;;;;5088758;28;20085;-74
2023/08/26 03:17:26;;;;;;;7.22;3.70;;;;;;;;;;5088690;28;20464;-73
2023/08/26 03:19:52;;;;;;;9.20;3.25;;;;;;;;;;5089875;28;20028;-72
2023/08/26 03:22:17;;;;;;;6.93;2.72;;;;;;;;;;5090018;28;20028;-70
2023/08/26 03:24:42;;;;;;;6.95;3.10;;;;;;;;;;5086789;28;20442;-69
2023/08/26 03:27:08;;;;;;;5.78;2.75;;;;;;;;;;5089058;28;20050;-69
2023/08/26 03:29:33;;;;;;;6.40;3.20;;;;;;;;;;5089801;28;20081;-68
2023/08/26 03:31:59;;;;;;;6.07;2.80;;;;;;;;;;5091131;28;20040;-68
2023/08/26 03:34:24;;;;;;;5.78;2.83;;;;;;;;;;5089090;28;20156;-68
2023/08/26 03:36:50;;;;;;;7.72;2.80;;;;;;;;;;5088878;28;20403;-68
2023/08/26 03:39:15;;;;;;;5.07;2.58;;;;;;;;;;5086961;28;20441;-67
2023/08/26 03:41:41;;;;;;;10.13;2.80;;;;;;;;;;5078522;28;20068;-68
2023/08/26 03:44:06;;;;;;;8.75;2.92;;;;;;;;;;5085998;28;20028;-68
2023/08/26 03:46:31;;;;;;;9.70;3.03;;;;;;;;;;5088127;28;20070;-68
2023/08/26 03:48:57;;;;;;;9.65;3.15;;;;;;;;;;5089114;28;20131;-69
2023/08/26 03:51:22;;;;;;;9.75;3.30;;;;;;;;;;5090554;28;20466;-69
2023/08/26 03:53:48;;;;;;;8.65;3.38;;;;;;;;;;5088555;28;20077;-68
2023/08/26 03:56:13;;;;;;;8.43;3.25;;;;;;;;;;5089675;28;20487;-68
2023/08/26 03:58:39;;;;;;;8.82;3.30;;;;;;;;;;5090216;28;20225;-69
2023/08/26 04:01:05;;;;;;;6.53;3.15;;;;;;;;;;5089528;28;20059;-69
2023/08/26 04:03:31;;;;;;;15.75;3.85;;;;;;;;;;5087892;28;20028;-68
2023/08/26 04:06:00;;;;;;;8.57;3.53;;;;;;;;;;5088890;28;20112;-69
2023/08/26 04:08:27;;;;;;;11.00;3.60;;;;;;;;;;5089862;28;20031;-69
2023/08/26 04:10:57;;;;;;;11.73;3.55;;;;;;;;;;5088240;28;20448;-68
2023/08/26 04:13:27;;;;;;;12.82;3.45;;;;;;;;;;5087391;28;20090;-68
2023/08/26 04:15:56;;;;;;;12.85;3.45;;;;;;;;;;5089306;28;20387;-69
2023/08/26 04:18:23;;;;;;;9.05;3.08;;;;;;;;;;5089361;28;20043;-68
2023/08/26 04:20:49;;;;;;;10.38;3.63;;;;;;;;;;5089193;28;20369;-69
2023/08/26 04:23:14;;;;;;;6.25;3.38;;;;;;;;;;5088833;28;20470;-68
2023/08/26 04:25:40;;;;;;;10.82;3.40;;;;;;;;;;5088880;28;20026;-68
2023/08/26 04:28:06;;;;;;;8.35;3.40;;;;;;;;;;5091282;28;20054;-68
2023/08/26 04:30:32;;;;;;;10.25;3.63;;;;;;;;;;5090983;28;20460;-68
2023/08/26 04:32:57;;;;;;;7.88;3.53;;;;;;;;;;5092714;28;20444;-68
2023/08/26 04:35:23;;;;;;;9.00;3.50;;;;;;;;;;5092688;28;20032;-68
2023/08/26 04:37:48;;;;;;;6.45;3.10;;;;;;;;;;5093260;28;20024;-69
2023/08/26 04:40:14;;;;;;;9.07;3.40;;;;;;;;;;5093008;28;20081;-68
2023/08/26 04:42:40;;;;;;;6.63;3.20;;;;;;;;;;5090229;28;20456;-67
2023/08/26 04:45:05;;;;;;;9.27;3.10;;;;;;;;;;5092041;28;20123;-68
2023/08/26 04:47:31;;;;;;;7.45;2.70;;;;;;;;;;5091280;28;20035;-68
2023/08/26 04:49:57;;;;;;;8.25;2.78;;;;;;;;;;5092800;28;20039;-68
2023/08/26 04:52:22;;;;;;;7.80;3.15;;;;;;;;;;5093809;28;20032;-69
2023/08/26 04:54:47;;;;;;;5.82;2.85;;;;;;;;;;5090720;28;20115;-69
2023/08/26 04:57:13;;;;;;;9.70;2.90;;;;;;;;;;5092387;28;20031;-69
2023/08/26 04:59:38;;;;;;;6.85;3.08;;;;;;;;;;5092264;28;20058;-69
2023/08/26 05:02:07;;;;;;;7.35;3.08;;;;;;;;;;5093198;28;20036;-69
2023/08/26 05:04:33;;;;;;;6.38;2.80;;;;;;;;;;5091316;28;20882;-68
2023/08/26 05:06:58;;;;;;;8.48;3.10;;;;;;;;;;5091101;28;20032;-69
2023/08/26 05:09:24;;;;;;;9.77;3.00;;;;;;;;;;5092375;28;20028;-69
2023/08/26 05:11:49;;;;;;;9.50;3.00;;;;;;;;;;5091465;28;20185;-68
2023/08/26 05:14:14;;;;;;;5.95;2.50;;;;;;;;;;5092175;28;20028;-68
2023/08/26 05:16:40;;;;;;;11.35;2.92;;;;;;;;;;5090632;28;20150;-69
2023/08/26 05:19:05;;;;;;;8.02;2.92;;;;;;;;;;5091509;28;20036;-69
2023/08/26 05:21:31;;;;;;;11.57;3.10;;;;;;;;;;5090151;28;20171;-69
2023/08/26 05:24:03;;;;;;;8.88;3.17;;;;;;;;;;5093967;28;20448;-69
2023/08/26 05:26:28;;;;;;;6.90;2.80;;;;;;;;;;5089940;28;20032;-69
2023/08/26 05:28:53;;;;;;;10.98;2.90;;;;;;;;;;5093789;28;20082;-69
2023/08/26 05:31:19;;;;;;;14.85;3.05;;;;;;;;;;5089675;28;20028;-69
2023/08/26 05:33:44;;;;;;;11.95;3.03;;;;;;;;;;5092278;28;20123;-70
2023/08/26 05:36:09;;;;;;;8.60;2.78;;;;;;;;;;5091215;28;20032;-69
2023/08/26 05:38:35;;;;;;;6.88;2.78;;;;;;;;;;5091915;28;20089;-69
2023/08/26 05:41:00;;;;;;;5.82;2.78;;;;;;;;;;5090346;28;20107;-69
2023/08/26 05:43:29;;;;;;;8.90;3.17;;;;;;;;;;5089751;28;20034;-69
2023/08/26 05:45:58;;;;;;;6.32;3.10;;;;;;;;;;5091102;28;20431;-70
2023/08/26 05:48:24;;;;;;;9.18;2.88;;;;;;;;;;5075557;28;20036;-69
2023/08/26 05:50:49;;;;;;;11.32;3.00;;;;;;;;;;5091301;28;20034;-69
2023/08/26 05:53:15;;;;;;;8.98;2.88;;;;;;;;;;5089363;28;20337;-69
2023/08/26 05:55:41;;;;;;;7.15;3.13;;;;;;;;;;5093163;28;20028;-69
2023/08/26 05:58:06;;;;;;;5.70;2.97;;;;;;;;;;5093175;28;20028;-70
2023/08/26 06:00:32;;;;;;;7.97;2.95;;;;;;;;;;5090973;28;20035;-69
2023/08/26 06:02:57;;;;;;;7.60;2.70;;;;;;;;;;5092024;28;20032;-70
2023/08/26 06:05:23;;;;;;;8.30;2.67;;;;;;;;;;5091090;28;20153;-69
2023/08/26 06:07:50;;;;;;;11.30;2.72;;;;;;;;;;5092548;28;20043;-69
2023/08/26 06:10:15;;;;;;;10.80;2.97;;;;;;;;;;5092510;28;20098;-69
2023/08/26 06:12:41;;;;;;;6.15;2.60;;;;;;;;;;5089918;28;20073;-69
2023/08/26 06:15:07;;;;;;;6.38;2.50;;;;;;;;;;5092505;28;20024;-70
2023/08/26 06:17:34;;;;;;;6.50;2.42;;;;;;;;;;5090761;28;20040;-70
2023/08/26 06:20:00;;;;;;;6.50;2.50;;;;;;;;;;5092752;28;20036;-69
2023/08/26 06:22:25;;;;;;;7.05;2.75;;;;;;;;;;5087930;28;20038;-69
2023/08/26 06:24:51;;;;;;;5.97;2.78;;;;;;;;;;5092033;28;20442;-69
2023/08/26 06:27:16;;;;;;;6.38;2.70;;;;;;;;;;5092064;28;20444;-68
2023/08/26 06:29:52;;;;;;;10.98;2.63;;;;;;;;;;5091222;28;20036;-69
2023/08/26 06:32:17;;;;;;;8.48;2.83;;;;;;;;;;5092130;28;20024;-69
2023/08/26 06:34:42;;;;;;;6.43;2.40;;;;;;;;;;5092313;28;20051;-69
2023/08/26 06:37:08;;;;;;;7.38;2.40;;;;;;;;;;5090316;28;20032;-69
2023/08/26 06:39:33;;;;;;;6.95;2.47;;;;;;;;;;5090569;28;20036;-69
2023/08/26 06:41:58;;;;;;;6.90;2.50;;;;;;;;;;5091352;28;20036;-69
2023/08/26 06:44:24;;;;;;;6.28;2.25;;;;;;;;;;5089558;28;20024;-69
2023/08/26 06:46:52;;;;;;;8.52;2.88;;;;;;;;;;5088955;28;20482;-74
2023/08/26 06:49:17;;;;;;;7.50;2.40;;;;;;;;;;5089594;28;20036;-68
2023/08/26 06:51:43;;;;;;;5.75;2.10;;;;;;;;;;5084629;28;20077;-67
2023/08/26 06:54:08;;;;;;;8.18;2.42;;;;;;;;;;5092340;28;20024;-67
2023/08/26 06:56:33;;;;;;;8.52;2.08;;;;;;;;;;5091094;28;20093;-66
2023/08/26 06:58:59;;;;;;;9.00;2.63;;;;;;;;;;5091451;28;20031;-67
2023/08/26 07:01:24;;;;;;;7.72;2.30;;;;;;;;;;5089505;28;20099;-67
2023/08/26 07:03:50;;;;;;;5.43;2.00;;;;;;;;;;5089987;28;20031;-67
2023/08/26 07:06:15;;;;;;;6.72;2.25;;;;;;;;;;5091719;28;20032;-67
2023/08/26 07:08:41;;;;;;;6.28;1.83;;;;;;;;;;5090774;28;20071;-68
2023/08/26 07:11:06;;;;;;;5.30;2.08;;;;;;;;;;5090642;28;20036;-67
2023/08/26 07:13:32;;;;;;;5.00;1.95;;;;;;;;;;5089743;28;20456;-67
2023/08/26 07:15:57;;;;;;;2.80;1.77;;;;;;;;;;5089976;28;20044;-67
2023/08/26 07:18:22;;;;;;;4.95;2.00;;;;;;;;;;5091345;28;20380;-66
2023/08/26 07:20:48;;;;;;;4.88;2.00;;;;;;;;;;5091054;28;20080;-66
2023/08/26 07:23:13;;;;;;;5.97;2.05;;;;;;;;;;5091802;28;20032;-65
2023/08/26 07:25:39;;;;;;;7.30;2.30;;;;;;;;;;5090948;28;20102;-66
2023/08/26 07:28:04;;;;;;;4.40;1.80;;;;;;;;;;5090783;28;20040;-67
2023/08/26 07:30:30;;;;;;;3.08;1.83;;;;;;;;;;5089244;28;20464;-67
2023/08/26 07:32:55;;;;;;;5.22;2.08;;;;;;;;;;5089693;28;20029;-67
2023/08/26 07:35:21;;;;;;;5.30;1.95;;;;;;;;;;5090105;28;20036;-69
2023/08/26 07:37:46;;;;;;;3.45;1.60;;;;;;;;;;5090008;28;20046;-67
2023/08/26 07:40:15;;;;;;;7.85;1.85;;;;;;;;;;5090618;28;20423;-68
2023/08/26 07:42:43;;;;;;;5.80;1.60;;;;;;;;;;5087893;28;20038;-67
2023/08/26 07:45:09;;;;;;;3.42;1.55;;;;;;;;;;5087992;28;20043;-68
2023/08/26 07:47:34;;;;;;;5.68;1.70;;;;;;;;;;5089291;28;20527;-65
2023/08/26 07:49:59;;;;;;;4.57;1.67;;;;;;;;;;5091673;28;20111;-66
2023/08/26 07:52:25;;;;;;;4.65;2.15;;;;;;;;;;5089807;28;20024;-67
2023/08/26 07:54:51;;;;;;;3.53;1.63;;;;;;;;;;5091371;28;20032;-66
2023/08/26 07:57:16;;;;;;;5.82;1.92;;;;;;;;;;5091298;28;20081;-68
2023/08/26 07:59:41;;;;;;;6.05;1.70;;;;;;;;;;5093173;28;20039;-68
2023/08/26 08:02:07;;;;;;;5.63;1.98;;;;;;;;;;5095234;28;20032;-68
2023/08/26 08:04:32;;;;;;;5.45;1.92;;;;;;;;;;5093225;28;20110;-68
2023/08/26 08:06:58;;;;;;;5.53;1.90;;;;;;;;;;5091864;28;20040;-73
2023/08/26 08:09:23;;;;;;;3.13;1.90;;;;;;;;;;5094710;28;20020;-67
2023/08/26 08:11:48;;;;;;;6.03;2.15;;;;;;;;;;5092016;28;20036;-69
2023/08/26 08:14:14;;;;;;;7.05;2.33;;;;;;;;;;5094277;28;20036;-68
2023/08/26 08:16:39;;;;;;;7.07;2.50;;;;;;;;;;5093800;28;20543;-68
2023/08/26 08:19:05;;;;;;;4.78;1.90;;;;;;;;;;5095538;28;20034;-69
2023/08/26 08:21:30;;;;;;;5.35;2.00;;;;;;;;;;5094359;28;20028;-71
2023/08/26 08:23:55;;;;;;;3.63;1.90;;;;;;;;;;5091936;28;20032;-68
2023/08/26 08:26:21;;;;;;;4.72;2.10;;;;;;;;;;5094642;28;20108;-68
2023/08/26 08:28:46;;;;;;;3.25;1.80;;;;;;;;;;5094040;28;20036;-67
2023/08/26 08:31:11;;;;;;;5.53;2.15;;;;;;;;;;5092463;28;20032;-68
2023/08/26 08:33:37;;;;;;;5.00;1.95;;;;;;;;;;5093270;28;20127;-69
2023/08/26 08:36:03;;;;;;;5.85;2.20;;;;;;;;;;5094801;28;20103;-68
2023/08/26 08:38:29;;;;;;;3.75;1.95;;;;;;;;;;5092100;28;20044;-70
2023/08/26 08:40:54;;;;;;;4.05;2.00;;;;;;;;;;5094462;28;20103;-66
2023/08/26 08:43:21;;;;;;;7.35;2.10;;;;;;;;;;5094761;28;20028;-77
2023/08/26 08:45:49;;;;;;;3.95;2.00;;;;;;;;;;5093606;28;20028;-71
2023/08/26 08:48:16;;;;;;;4.82;2.08;;;;;;;;;;5093408;28;20433;-68
2023/08/26 08:50:42;;;;;;;5.32;2.15;;;;;;;;;;5093918;28;20279;-70
2023/08/26 08:53:09;;;;;;;5.35;2.13;;;;;;;;;;5092829;28;20113;-72
2023/08/26 08:55:34;;;;;;;4.35;2.17;;;;;;;;;;5092669;28;20023;-71
2023/08/26 08:58:02;;;;;;;3.45;2.30;;;;;;;;;;5094351;28;20034;-70
2023/08/26 09:00:29;;;;;;;4.18;2.30;;;;;;;;;;5093552;28;20157;-73
2023/08/26 09:13:10;;;;;;;4.32;2.45;;;;;;;;;;5254767;22;20518;-64
2023/08/26 09:15:35;;;;;;;5.40;2.42;;;;;;;;;;5047443;28;20037;-66
2023/08/26 09:18:02;;;;;;;5.70;2.53;;;;;;;;;;5041546;28;20484;-61
2023/08/26 09:20:29;;;;;;;7.10;2.47;;;;;;;;;;5037764;28;20132;-61
2023/08/26 09:23:04;;;;;;;5.80;2.63;;;;;;;;;;5033904;28;20076;-63
2023/08/26 09:25:31;;;;;;;4.28;2.42;;;;;;;;;;5031306;28;20040;-62
2023/08/26 09:27:58;;;;;;;5.28;2.45;;;;;;;;;;5033987;28;20112;-62
2023/08/26 09:30:23;;;;;;;6.32;2.60;;;;;;;;;;5047400;28;20025;-64
2023/08/26 09:32:49;;;;;;;4.55;2.42;;;;;;;;;;5032504;28;20087;-67
2023/08/26 09:35:19;;;;;;;3.80;2.50;;;;;;;;;;5053155;28;20043;-62
2023/08/26 09:37:47;;;;;;;5.40;2.50;;;;;;;;;;5049576;28;20802;-61
2023/08/26 09:40:16;;;;;;;4.80;2.17;;;;;;;;;;5053268;28;20025;-62
2023/08/26 09:42:42;;;;;;;4.65;2.10;;;;;;;;;;5051686;28;20082;-61
2023/08/26 09:45:13;;;;;;;5.35;2.22;;;;;;;;;;5053636;28;20091;-62
2023/08/26 09:47:39;;;;;;;5.47;2.10;;;;;;;;;;5051523;28;20054;-62
2023/08/26 09:50:07;;;;;;;6.07;2.00;;;;;;;;;;5050749;28;20469;-61
2023/08/26 09:52:41;;;;;;;4.57;2.17;;;;;;;;;;5052171;28;20142;-62
2023/08/26 09:55:07;;;;;;;3.15;1.80;;;;;;;;;;5043794;28;20082;-62
2023/08/26 09:57:33;;;;;;;3.75;1.92;;;;;;;;;;5051377;28;20064;-62
2023/08/26 09:59:58;;;;;;;3.80;2.00;;;;;;;;;;5033775;28;20021;-63
2023/08/26 10:02:25;;;;;;;4.40;1.83;;;;;;;;;;5045307;28;20437;-63
2023/08/26 10:04:54;;;;;;;3.28;1.80;;;;;;;;;;5052062;28;20074;-62
2023/08/26 10:07:22;;;;;;;2.17;1.53;;;;;;;;;;5047742;28;20116;-62
2023/08/26 10:10:11;;;;;;;3.22;1.70;;;;;;;;;;5045388;28;20021;-63
2023/08/26 10:12:40;;;;;;;3.33;1.63;;;;;;;;;;5051638;28;20025;-62
2023/08/26 10:15:09;;;;;;;2.90;1.80;;;;;;;;;;5047249;28;20031;-62
2023/08/26 10:17:36;;;;;;;3.47;1.80;;;;;;;;;;5046199;28;20037;-61
2023/08/26 10:20:02;;;;;;;2.83;1.70;;;;;;;;;;5052271;28;20052;-62
2023/08/26 10:22:27;;;;;;;3.03;1.50;;;;;;;;;;5051745;28;20029;-61
2023/08/26 10:24:53;;;;;;;3.05;1.60;;;;;;;;;;5044562;28;20045;-62
2023/08/26 10:27:19;;;;;;;4.13;1.58;;;;;;;;;;5048727;28;20044;-61
2023/08/26 10:29:45;;;;;;;3.28;1.55;;;;;;;;;;5049945;28;20033;-60
2023/08/26 10:32:21;;;;;;;3.42;1.73;;;;;;;;;;5051716;28;20071;-61
2023/08/26 10:34:59;;;;;;;2.88;1.60;;;;;;;;;;5050815;28;20043;-63
2023/08/26 10:37:31;;;;;;;3.17;1.50;;;;;;;;;;5033245;28;20037;-63
2023/08/26 10:40:12;;;;;;;3.05;1.70;;;;;;;;;;5032042;28;20040;-62
2023/08/26 10:42:38;;;;;;;;;;;;;;;;;;5031509;28;20437;-63
2023/08/26 10:45:14;;;;;;;1.65;1.40;;;;;;;;;;5031649;28;20027;-63
2023/08/26 10:47:46;;;;;;;4.25;1.75;;;;;;;;;;5049813;28;20129;-63
2023/08/26 10:50:22;;;;;;;2.95;1.70;;;;;;;;;;5039541;28;20032;-65
2023/08/26 10:52:53;;;;;;;2.22;1.40;;;;;;;;;;5049963;28;20103;-64
2023/08/26 10:55:25;;;;;;;4.20;1.73;;;;;;;;;;5051209;28;20025;-63
2023/08/26 10:58:11;;;;;;;3.17;1.60;;;;;;;;;;5049690;28;20079;-61
2023/08/26 11:00:39;;;;;;;3.92;1.70;;;;;;;;;;5050323;28;20033;-62
2023/08/26 11:03:09;;;;;;;3.20;1.92;;;;;;;;;;5050768;28;20040;-62
2023/08/26 11:05:36;;;;;;;2.92;1.60;;;;;;;;;;5046355;28;20052;-59
2023/08/26 11:08:03;;;;;;;4.55;1.40;;;;;;;;;;5039787;28;20041;-61
2023/08/26 11:10:30;;;;;;;1.38;1.20;;;;;;;;;;5032000;28;20476;-61
2023/08/26 11:12:56;;;;;;;3.05;1.38;;;;;;;;;;5030427;28;20489;-62
2023/08/26 11:15:22;;;;;;;3.28;1.40;;;;;;;;;;5036401;28;20032;-61
2023/08/26 11:17:48;;;;;;;1.92;1.40;;;;;;;;;;5050683;28;20028;-61
2023/08/26 11:20:17;;;;;;;2.28;1.40;;;;;;;;;;5050002;28;20033;-61
2023/08/26 11:22:44;;;;;;;2.47;1.40;;;;;;;;;;5030962;28;20042;-61
2023/08/26 11:25:17;;;;;;;4.10;1.20;;;;;;;;;;5034666;28;20137;-61
2023/08/26 11:27:42;;;;;;;4.25;1.50;;;;;;;;;;5049870;28;20433;-61
2023/08/26 11:30:09;;;;;;;1.98;1.23;;;;;;;;;;5049993;28;20551;-61
2023/08/26 11:32:39;;;;;;;2.38;1.50;;;;;;;;;;5035560;28;20068;-59
2023/08/26 11:35:09;;;;;;;2.15;1.38;;;;;;;;;;5036021;28;20040;-62
2023/08/26 11:37:35;;;;;;;1.35;1.10;;;;;;;;;;5042578;28;20116;-60
2023/08/26 11:40:05;;;;;;;2.40;1.20;;;;;;;;;;5055324;28;20025;-62
2023/08/26 11:42:30;;;;;;;3.13;1.20;;;;;;;;;;5055581;28;20100;-61
2023/08/26 11:44:56;;;;;;;3.47;1.60;;;;;;;;;;5054521;28;20237;-61
2023/08/26 11:47:23;;;;;;;4.72;1.35;;;;;;;;;;5053851;28;20035;-60
2023/08/26 11:49:49;;;;;;;3.20;1.40;;;;;;;;;;5054356;28;20025;-62
2023/08/26 11:52:14;;;;;;;3.58;1.50;;;;;;;;;;5055340;28;20100;-62
2023/08/26 11:54:40;;;;;;;3.72;1.38;;;;;;;;;;5054743;28;20025;-61
2023/08/26 11:57:06;;;;;;;3.55;1.40;;;;;;;;;;5055594;28;20471;-62
2023/08/26 11:59:38;;;;;;;2.75;1.30;;;;;;;;;;5054725;28;20036;-63
2023/08/26 12:02:22;;;;;;;3.53;1.50;;;;;;;;;;5036562;28;20033;-63
2023/08/26 12:04:54;;;;;;;4.47;1.30;;;;;;;;;;5034386;28;20037;-61
2023/08/26 12:07:20;;;;;;;2.40;1.23;;;;;;;;;;5040001;28;20384;-66
2023/08/26 12:09:45;;;;;;;2.38;1.50;;;;;;;;;;5054063;28;20445;-56
2023/08/26 12:12:11;;;;;;;3.65;1.40;;;;;;;;;;5055068;28;20452;-61
2023/08/26 12:14:36;;;;;;;3.50;1.30;;;;;;;;;;5053547;28;20041;-64
2023/08/26 12:17:04;;;;;;;3.72;1.50;;;;;;;;;;5053434;28;20490;-60
2023/08/26 12:19:33;;;;;;;2.60;1.45;;;;;;;;;;5050024;28;20112;-60
2023/08/26 12:21:59;;;;;;;2.45;1.60;;;;;;;;;;5033164;28;20041;-59
2023/08/26 12:24:25;;;;;;;2.67;1.52;;;;;;;;;;5034557;28;20079;-60
2023/08/26 12:26:51;;;;;;;4.95;1.40;;;;;;;;;;5033758;28;20115;-60
2023/08/26 12:29:16;;;;;;;2.78;1.50;;;;;;;;;;5034597;28;20508;-60
2023/08/26 12:31:43;;;;;;;3.72;1.60;;;;;;;;;;5033837;28;20514;-61
2023/08/26 12:34:09;;;;;;;3.08;1.40;;;;;;;;;;5034718;28;20473;-60
2023/08/26 12:36:34;;;;;;;2.97;2.08;;;;;;;;;;5034618;28;20037;-60
2023/08/26 12:38:59;;;;;;;3.55;2.55;;;;;;;;;;5034338;28;20096;-60
2023/08/26 12:41:26;;;;;;;3.72;2.25;;;;;;;;;;5034461;28;20130;-60
2023/08/26 12:43:55;;;;;;;5.32;1.85;;;;;;;;;;5033331;28;20026;-60
2023/08/26 12:46:24;;;;;;;5.82;2.33;;;;;;;;;;5033964;28;20061;-60
2023/08/26 12:48:49;;;;;;;3.50;1.60;;;;;;;;;;5047921;28;20036;-60
2023/08/26 12:51:15;;;;;;;9.95;5.63;;;;;;;;;;5052806;28;20036;-60
2023/08/26 12:53:42;;;;;;;4.63;2.70;;;;;;;;;;5053321;28;20076;-59
2023/08/26 12:56:07;;;;;;;5.05;2.28;;;;;;;;;;5041471;28;20064;-60
2023/08/26 12:58:33;;;;;;;4.40;2.00;;;;;;;;;;5052025;28;20064;-58
2023/08/26 13:00:59;;;;;;;4.82;2.00;;;;;;;;;;5051532;28;20183;-62
2023/08/26 13:03:24;;;;;;;3.90;1.98;;;;;;;;;;5053793;28;20033;-58
2023/08/26 13:05:51;;;;;;;4.85;2.30;;;;;;;;;;5050481;28;20037;-59
2023/08/26 13:08:17;;;;;;;2.88;1.60;;;;;;;;;;5052973;28;20036;-59
2023/08/26 13:10:43;;;;;;;3.38;1.85;;;;;;;;;;5051590;28;20029;-60
2023/08/26 13:13:08;;;;;;;4.32;1.65;;;;;;;;;;5052588;28;20134;-59
2023/08/26 13:15:37;;;;;;;4.68;1.58;;;;;;;;;;5051583;28;20159;-59
2023/08/26 13:18:03;;;;;;;4.13;1.45;;;;;;;;;;5050623;28;20033;-60
2023/08/26 13:20:29;;;;;;;3.22;1.48;;;;;;;;;;5052136;28;20381;-59
2023/08/26 13:22:54;;;;;;;5.05;1.70;;;;;;;;;;5051681;28;20032;-59
2023/08/26 13:25:20;;;;;;;2.13;1.30;;;;;;;;;;5053052;28;20435;-59
2023/08/26 13:27:45;;;;;;;4.35;1.58;;;;;;;;;;5047792;28;20087;-58
2023/08/26 13:30:12;;;;;;;4.25;1.65;;;;;;;;;;5033992;28;20033;-59
2023/08/26 13:32:37;;;;;;;4.43;1.60;;;;;;;;;;5034615;28;20033;-59
2023/08/26 13:35:03;;;;;;;2.80;1.50;;;;;;;;;;5051543;28;20349;-59
2023/08/26 13:37:28;;;;;;;3.38;1.45;;;;;;;;;;5052418;28;20388;-58
2023/08/26 13:39:54;;;;;;;2.60;1.30;;;;;;;;;;5043029;28;20048;-58
2023/08/26 13:42:19;;;;;;;1.75;1.10;;;;;;;;;;5032110;28;20033;-59
2023/08/26 13:44:44;;;;;;;2.75;1.40;;;;;;;;;;5034555;28;20032;-59
2023/08/26 13:47:10;;;;;;;2.60;1.40;;;;;;;;;;5052280;28;20142;-61
2023/08/26 13:49:35;;;;;;;2.63;1.45;;;;;;;;;;5052338;28;20426;-58
2023/08/26 13:52:01;;;;;;;2.85;1.40;;;;;;;;;;5051177;28;20590;-59
2023/08/26 13:54:26;;;;;;;1.80;1.20;;;;;;;;;;5051963;28;20128;-59
2023/08/26 13:56:52;;;;;;;1.33;1.10;;;;;;;;;;5049819;28;20465;-59
2023/08/26 13:59:17;;;;;;;2.25;1.20;;;;;;;;;;5046542;28;20031;-59
2023/08/26 14:01:43;;;;;;;2.05;1.50;;;;;;;;;;5050868;28;20534;-60
2023/08/26 14:04:08;;;;;;;2.78;1.30;;;;;;;;;;5041011;28;20040;-59
2023/08/26 14:06:34;;;;;;;2.08;1.30;;;;;;;;;;5031880;28;20029;-59
2023/08/26 14:08:59;;;;;;;2.42;1.30;;;;;;;;;;5031153;28;20044;-59
2023/08/26 14:11:26;;;;;;;1.63;1.20;;;;;;;;;;5037485;28;20533;-59
2023/08/26 14:13:52;;;;;;;2.00;1.25;;;;;;;;;;5049946;28;20049;-57
2023/08/26 14:16:19;;;;;;;3.63;1.23;;;;;;;;;;5050687;28;20037;-60
2023/08/26 14:18:44;;;;;;;3.47;1.38;;;;;;;;;;5050844;28;20179;-61
2023/08/26 14:21:10;;;;;;;2.40;1.45;;;;;;;;;;5050721;28;20145;-60
2023/08/26 14:23:35;;;;;;;3.00;1.50;;;;;;;;;;5051315;28;20377;-60
2023/08/26 14:26:02;;;;;;;1.17;1.08;;;;;;;;;;5046311;28;20033;-60
2023/08/26 14:28:27;;;;;;;1.35;1.10;;;;;;;;;;5051703;28;20021;-61
2023/08/26 14:30:53;;;;;;;3.65;1.35;;;;;;;;;;5050090;28;20032;-61
2023/08/26 14:33:20;;;;;;;2.00;1.20;;;;;;;;;;5051154;28;20040;-59
2023/08/26 14:35:50;;;;;;;2.45;1.20;;;;;;;;;;5049507;28;20043;-60
2023/08/26 14:38:15;;;;;;;1.75;1.13;;;;;;;;;;5050396;28;20162;-59
2023/08/26 14:40:46;;;;;;;2.22;1.27;;;;;;;;;;5050888;28;20107;-59
2023/08/26 14:43:14;;;;;;;3.42;1.45;;;;;;;;;;5045055;28;20036;-59
2023/08/26 14:45:39;;;;;;;2.38;1.40;;;;;;;;;;5051666;28;20029;-59